Pagrindinis puslapis
METAR-TAF:

METAR-TAF

Oro uostai :

Mineralnye Vody, Rusija

platuma: 44-14N, ilguma: 043-04E, Aukštis: 314 m

Dabartinis oras

Ataskaita buvo paskelbta 13 minutes, ne 19:00 UTC
Ramus vėjas
Temperatūra 15°C
Drėgmė 44%
Slėgis 1020 hPa
Matomumas 10 km arba daugiau

METAR: URMM 151900Z 00000MPS 9999 NSC 15/03 Q1020 R30/090070 NOSIG RMK QFE737/0982

Laikas: 22:13 (19:13 UTC)

Prognozė

Ataskaita buvo paskelbta 2 valandos ir 13 minutes, ne 17:00 UTC
Prognozė galioja nuo 15 metu 18 UTC su 16 metu 18 UTC
Vėjas 6 kt iš Vakarų su gūsio iki 16 kt
Matomumas 10 km arba daugiau
Tapsmas
nuo 16 metu 05 UTC su 16 metu 07 UTC
Vėjas 6 kt iš Rytų su gūsio iki 16 kt

TAF: URMM 151700Z 1518/1618 27003G08MPS 9999 NSC TX27/1612Z TN09/1603Z BECMG 1605/1607 10003G08MPS

Orai ataskaitas ir orų prognozės (METAR, TAF).

turimą stotys yra geltonos ir raudonos taškus žemėlapyje.

Perkelti pele per norėdami pamatyti stoties vardą.

Tada spustelėkite, norėdami matyti oro stebėjimo ir prognozės.

Norėdami pakeisti žemėlapį: spustelėkite ant žalios mygtukų su juodo kryžiaus žemyn,; žalią mygtuką su brūkšneliu, jei norite nutolinti; arba žalių rodyklių gretimoms žemėlapius.


METAR-TAF: